This is the latest recevied telemetry packets stored in our database for station/object OE6ERD-10. If no packets are shown the sender has not sent any telemetry packets the latest 1 day(s).
Telemetry packets is used to share measurements like repeteater parameters, battery voltage, radiation readings (or any other measurements).
| Time | Press* | Temp.in* | Hum* | QNH* | Temp.out* |
|---|---|---|---|---|---|
| 1778059984 | 953.8 hPa | 21.8 C deg | 43.3 % | 1007.9 hPa | 13.9 C deg |
| 1778058180 | 954 hPa | 21 C deg | 46.3 % | 1008.3 hPa | 13.9 C deg |
| 1778056388 | 954 hPa | 20.9 C deg | 46.1 % | 1008.4 hPa | 13.8 C deg |
| 1778054558 | 954.2 hPa | 19 C deg | 53.1 % | 1008.9 hPa | 13.8 C deg |
| 1778052732 | 954.1 hPa | 19.7 C deg | 52.6 % | 1008.7 hPa | 13.8 C deg |
| 1778050925 | 954.2 hPa | 19 C deg | 58.4 % | 1008.9 hPa | 13.8 C deg |
| 1778049095 | 954.2 hPa | 19.4 C deg | 56.1 % | 1008.9 hPa | 13.8 C deg |
| 1778047288 | 954.3 hPa | 16.7 C deg | 63.1 % | 1009.5 hPa | 13.8 C deg |
| 1778045501 | 954.4 hPa | 13.6 C deg | 68.2 % | 1010.2 hPa | 13.7 C deg |
| 1778043641 | 954.5 hPa | 11.4 C deg | 73.3 % | 1010.8 hPa | 13.8 C deg |
| 1778041862 | 954.5 hPa | 10.8 C deg | 74.5 % | 1010.8 hPa | 13.8 C deg |
| 1778040013 | 954.4 hPa | 10 C deg | 77.5 % | 1010.9 hPa | 13.8 C deg |
| 1778038196 | 954.2 hPa | 10 C deg | 81.2 % | 1010.7 hPa | 13.8 C deg |
| 1778034571 | 953.9 hPa | 11.1 C deg | 78.3 % | 1010.2 hPa | 13.9 C deg |
| 1778032753 | 953.8 hPa | 10.7 C deg | 80.4 % | 1010.1 hPa | 14 C deg |
| 1778030945 | 953.6 hPa | 11.2 C deg | 77.5 % | 1009.8 hPa | 14.1 C deg |
| 1778029125 | 953.4 hPa | 11.9 C deg | 76.8 % | 1009.5 hPa | 14.1 C deg |
| 1778027295 | 953.4 hPa | 11.8 C deg | 76.4 % | 1009.5 hPa | 14.1 C deg |
| 1778025484 | 953.4 hPa | 12 C deg | 74.9 % | 1009.4 hPa | 14.1 C deg |
| 1778023665 | 953.3 hPa | 12.4 C deg | 74.7 % | 1009.3 hPa | 14.2 C deg |
| 1778021854 | 953.4 hPa | 12.6 C deg | 73.2 % | 1009.3 hPa | 14.2 C deg |
| 1778020063 | 953.4 hPa | 12.9 C deg | 72.8 % | 1009.2 hPa | 14.2 C deg |
| 1778018220 | 953.3 hPa | 12.8 C deg | 72.1 % | 1009.2 hPa | 14.2 C deg |
| 1778016418 | 953.3 hPa | 13.4 C deg | 69.9 % | 1009 hPa | 14.3 C deg |
| 1778014613 | 953.3 hPa | 13.6 C deg | 69.7 % | 1009 hPa | 14.4 C deg |
*Used Equation Coefficients:
Press: 0, 1, 0
Temp.in: 0, 1, 0
Hum: 0, 1, 0
QNH: 0, 1, 0
Temp.out: 0, 1, 0
- The parameter names for the analog channels will be Value1, Value2, Value3 (up to Value5) if station has not sent a PARAM-packet that specifies the parameter names for each analog channel.
- Each analog value is a decimal number between 000 and 255 (according to APRS specifications). The receiver use the telemetry equation coefficientsto to restore the original sensor values. If no EQNS-packet with equation coefficients is sent we will show the values as is (this corresponds to the equation coefficients a=0, b=1 and c=0).
The sent equation coefficients is used in the equation: a * value2 + b * value + c. - The units for the analog values will not be shown if station has not sent a UNIT-packet specifying what unit's to use.
- The parameter names for the digital bits will be Bit1, Bit2, Bit3 (up to Bit8) if station has not sent a PARAM-packet that specifies the parameter names for each digital bit.
- All bit labels will be named "On" if station has not sent a UNIT-packet that specifies the label of each bit.
- A bit is considered to be On when the bit is 1 if station has not sent a BITS-packet that specifies another "Bit sense" (a BITS-packet specify the state of the bits that match the BIT labels)